sensor_id;sensor_type;location;lat;lon;timestamp;P1;durP1;ratioP1;P2;durP2;ratioP2
62419;SDS011;48460;51.616;5.426;2022-09-09T00:00:22;7.78;;;2.90;;
62419;SDS011;48460;51.616;5.426;2022-09-09T00:02:54;6.78;;;2.97;;
62419;SDS011;48460;51.616;5.426;2022-09-09T00:07:51;7.50;;;3.35;;
62419;SDS011;48460;51.616;5.426;2022-09-09T00:21:19;9.15;;;3.10;;
62419;SDS011;48460;51.616;5.426;2022-09-09T00:23:56;6.55;;;2.70;;
62419;SDS011;48460;51.616;5.426;2022-09-09T00:31:39;6.55;;;2.83;;
62419;SDS011;48460;51.616;5.426;2022-09-09T00:34:08;6.47;;;3.33;;
62419;SDS011;48460;51.616;5.426;2022-09-09T00:36:36;7.22;;;2.97;;
62419;SDS011;48460;51.616;5.426;2022-09-09T00:39:03;7.50;;;3.03;;
62419;SDS011;48460;51.616;5.426;2022-09-09T00:47:12;5.70;;;2.78;;
62419;SDS011;48460;51.616;5.426;2022-09-09T00:57:23;8.13;;;2.80;;
62419;SDS011;48460;51.616;5.426;2022-09-09T01:05:12;8.98;;;3.13;;
62419;SDS011;48460;51.616;5.426;2022-09-09T01:07:45;5.13;;;2.95;;
62419;SDS011;48460;51.616;5.426;2022-09-09T01:10:21;5.07;;;2.80;;
62419;SDS011;48460;51.616;5.426;2022-09-09T01:12:55;6.32;;;3.08;;
62419;SDS011;48460;51.616;5.426;2022-09-09T01:15:27;6.72;;;2.83;;
62419;SDS011;48460;51.616;5.426;2022-09-09T01:18:08;6.53;;;2.70;;
62419;SDS011;48460;51.616;5.426;2022-09-09T01:20:47;6.45;;;2.88;;
62419;SDS011;48460;51.616;5.426;2022-09-09T01:28:35;6.55;;;2.72;;
62419;SDS011;48460;51.616;5.426;2022-09-09T01:31:03;5.70;;;2.90;;
62419;SDS011;48460;51.616;5.426;2022-09-09T01:33:31;7.65;;;2.70;;
62419;SDS011;48460;51.616;5.426;2022-09-09T01:38:49;10.88;;;3.00;;
62419;SDS011;48460;51.616;5.426;2022-09-09T01:41:15;5.53;;;2.85;;
62419;SDS011;48460;51.616;5.426;2022-09-09T01:43:40;5.65;;;2.88;;
62419;SDS011;48460;51.616;5.426;2022-09-09T01:46:06;8.63;;;3.00;;
62419;SDS011;48460;51.616;5.426;2022-09-09T01:48:32;10.10;;;2.90;;
62419;SDS011;48460;51.616;5.426;2022-09-09T01:50:58;8.88;;;3.00;;
62419;SDS011;48460;51.616;5.426;2022-09-09T01:53:23;11.98;;;3.08;;
62419;SDS011;48460;51.616;5.426;2022-09-09T02:01:46;9.35;;;3.10;;
62419;SDS011;48460;51.616;5.426;2022-09-09T02:04:14;8.50;;;3.53;;
62419;SDS011;48460;51.616;5.426;2022-09-09T02:07:01;11.18;;;3.40;;
62419;SDS011;48460;51.616;5.426;2022-09-09T02:09:27;9.00;;;3.38;;
62419;SDS011;48460;51.616;5.426;2022-09-09T02:12:00;8.77;;;3.40;;
62419;SDS011;48460;51.616;5.426;2022-09-09T02:14:34;6.43;;;3.38;;
62419;SDS011;48460;51.616;5.426;2022-09-09T02:17:07;13.38;;;3.50;;
62419;SDS011;48460;51.616;5.426;2022-09-09T02:19:37;13.27;;;3.65;;
62419;SDS011;48460;51.616;5.426;2022-09-09T02:22:11;10.95;;;3.50;;
62419;SDS011;48460;51.616;5.426;2022-09-09T02:24:37;15.00;;;3.53;;
62419;SDS011;48460;51.616;5.426;2022-09-09T02:27:04;6.28;;;3.50;;
62419;SDS011;48460;51.616;5.426;2022-09-09T02:29:34;11.10;;;3.58;;
62419;SDS011;48460;51.616;5.426;2022-09-09T02:32:04;9.70;;;3.80;;
62419;SDS011;48460;51.616;5.426;2022-09-09T02:34:36;9.75;;;3.38;;
62419;SDS011;48460;51.616;5.426;2022-09-09T02:37:07;8.95;;;3.35;;
62419;SDS011;48460;51.616;5.426;2022-09-09T02:39:34;8.73;;;3.47;;
62419;SDS011;48460;51.616;5.426;2022-09-09T02:42:00;14.90;;;3.65;;
62419;SDS011;48460;51.616;5.426;2022-09-09T02:44:25;5.85;;;3.90;;
62419;SDS011;48460;51.616;5.426;2022-09-09T02:52:07;9.80;;;3.70;;
62419;SDS011;48460;51.616;5.426;2022-09-09T02:54:39;10.70;;;3.85;;
62419;SDS011;48460;51.616;5.426;2022-09-09T02:57:11;12.43;;;3.90;;
62419;SDS011;48460;51.616;5.426;2022-09-09T02:59:46;11.68;;;3.70;;
62419;SDS011;48460;51.616;5.426;2022-09-09T03:02:11;9.73;;;4.32;;
62419;SDS011;48460;51.616;5.426;2022-09-09T03:04:38;12.60;;;3.92;;
62419;SDS011;48460;51.616;5.426;2022-09-09T03:07:04;13.55;;;3.72;;
62419;SDS011;48460;51.616;5.426;2022-09-09T03:09:30;11.32;;;4.03;;
62419;SDS011;48460;51.616;5.426;2022-09-09T03:11:56;11.57;;;4.15;;
62419;SDS011;48460;51.616;5.426;2022-09-09T03:14:22;11.45;;;3.80;;
62419;SDS011;48460;51.616;5.426;2022-09-09T03:16:52;14.40;;;4.32;;
62419;SDS011;48460;51.616;5.426;2022-09-09T03:19:17;11.55;;;3.75;;
62419;SDS011;48460;51.616;5.426;2022-09-09T03:21:43;14.40;;;3.60;;
62419;SDS011;48460;51.616;5.426;2022-09-09T03:24:12;12.80;;;3.80;;
62419;SDS011;48460;51.616;5.426;2022-09-09T03:26:39;9.48;;;3.97;;
62419;SDS011;48460;51.616;5.426;2022-09-09T03:29:06;10.20;;;3.85;;
62419;SDS011;48460;51.616;5.426;2022-09-09T03:31:35;9.73;;;3.90;;
62419;SDS011;48460;51.616;5.426;2022-09-09T03:34:01;14.52;;;4.20;;
62419;SDS011;48460;51.616;5.426;2022-09-09T03:36:27;13.25;;;4.25;;
62419;SDS011;48460;51.616;5.426;2022-09-09T03:38:55;11.23;;;4.13;;
62419;SDS011;48460;51.616;5.426;2022-09-09T03:41:21;11.35;;;4.03;;
62419;SDS011;48460;51.616;5.426;2022-09-09T03:43:49;13.85;;;4.38;;
62419;SDS011;48460;51.616;5.426;2022-09-09T03:46:15;10.55;;;3.90;;
62419;SDS011;48460;51.616;5.426;2022-09-09T03:48:41;9.50;;;3.78;;
62419;SDS011;48460;51.616;5.426;2022-09-09T03:51:06;7.75;;;3.70;;
62419;SDS011;48460;51.616;5.426;2022-09-09T03:53:31;16.48;;;4.20;;
62419;SDS011;48460;51.616;5.426;2022-09-09T03:55:58;12.25;;;3.83;;
62419;SDS011;48460;51.616;5.426;2022-09-09T03:58:25;11.98;;;3.95;;
62419;SDS011;48460;51.616;5.426;2022-09-09T04:03:23;14.38;;;3.70;;
62419;SDS011;48460;51.616;5.426;2022-09-09T04:05:53;10.18;;;3.70;;
62419;SDS011;48460;51.616;5.426;2022-09-09T04:08:20;12.50;;;4.60;;
62419;SDS011;48460;51.616;5.426;2022-09-09T04:10:46;14.27;;;3.97;;
62419;SDS011;48460;51.616;5.426;2022-09-09T04:13:15;9.45;;;3.70;;
62419;SDS011;48460;51.616;5.426;2022-09-09T04:15:41;15.48;;;4.20;;
62419;SDS011;48460;51.616;5.426;2022-09-09T04:18:07;10.68;;;3.70;;
62419;SDS011;48460;51.616;5.426;2022-09-09T04:20:33;9.48;;;3.70;;
62419;SDS011;48460;51.616;5.426;2022-09-09T04:22:58;11.00;;;3.95;;
62419;SDS011;48460;51.616;5.426;2022-09-09T04:25:24;16.98;;;3.90;;
62419;SDS011;48460;51.616;5.426;2022-09-09T04:27:56;16.00;;;3.70;;
62419;SDS011;48460;51.616;5.426;2022-09-09T04:30:27;13.25;;;3.88;;
62419;SDS011;48460;51.616;5.426;2022-09-09T04:35:35;18.23;;;3.80;;
62419;SDS011;48460;51.616;5.426;2022-09-09T04:38:04;10.10;;;3.65;;
62419;SDS011;48460;51.616;5.426;2022-09-09T04:40:32;14.50;;;3.83;;
62419;SDS011;48460;51.616;5.426;2022-09-09T04:43:00;15.80;;;3.60;;
62419;SDS011;48460;51.616;5.426;2022-09-09T04:45:29;15.88;;;4.15;;
62419;SDS011;48460;51.616;5.426;2022-09-09T04:47:56;16.52;;;4.22;;
62419;SDS011;48460;51.616;5.426;2022-09-09T04:50:30;11.60;;;3.70;;
62419;SDS011;48460;51.616;5.426;2022-09-09T04:52:59;9.50;;;3.53;;
62419;SDS011;48460;51.616;5.426;2022-09-09T04:55:25;11.45;;;3.67;;
62419;SDS011;48460;51.616;5.426;2022-09-09T04:57:51;18.75;;;4.28;;
62419;SDS011;48460;51.616;5.426;2022-09-09T05:00:16;14.10;;;3.85;;
62419;SDS011;48460;51.616;5.426;2022-09-09T05:02:42;15.85;;;4.25;;
62419;SDS011;48460;51.616;5.426;2022-09-09T05:05:07;13.32;;;4.20;;
62419;SDS011;48460;51.616;5.426;2022-09-09T05:07:33;10.23;;;3.70;;
62419;SDS011;48460;51.616;5.426;2022-09-09T05:09:58;15.13;;;3.90;;
62419;SDS011;48460;51.616;5.426;2022-09-09T05:12:24;12.45;;;3.85;;
62419;SDS011;48460;51.616;5.426;2022-09-09T05:14:53;19.98;;;4.50;;
62419;SDS011;48460;51.616;5.426;2022-09-09T05:17:19;10.07;;;3.88;;
62419;SDS011;48460;51.616;5.426;2022-09-09T05:19:44;16.50;;;4.10;;
62419;SDS011;48460;51.616;5.426;2022-09-09T05:22:10;14.05;;;4.30;;
62419;SDS011;48460;51.616;5.426;2022-09-09T05:24:38;10.45;;;3.67;;
62419;SDS011;48460;51.616;5.426;2022-09-09T05:27:04;10.77;;;3.97;;
62419;SDS011;48460;51.616;5.426;2022-09-09T05:29:31;13.77;;;3.70;;
62419;SDS011;48460;51.616;5.426;2022-09-09T05:31:58;11.20;;;3.90;;
62419;SDS011;48460;51.616;5.426;2022-09-09T05:34:36;21.67;;;3.88;;
62419;SDS011;48460;51.616;5.426;2022-09-09T05:37:03;9.68;;;3.63;;
62419;SDS011;48460;51.616;5.426;2022-09-09T05:39:29;18.17;;;4.40;;
62419;SDS011;48460;51.616;5.426;2022-09-09T05:41:55;9.70;;;3.90;;
62419;SDS011;48460;51.616;5.426;2022-09-09T05:44:20;17.58;;;3.80;;
62419;SDS011;48460;51.616;5.426;2022-09-09T05:46:48;13.35;;;3.60;;
62419;SDS011;48460;51.616;5.426;2022-09-09T05:49:14;15.88;;;3.78;;
62419;SDS011;48460;51.616;5.426;2022-09-09T05:51:40;15.57;;;4.00;;
62419;SDS011;48460;51.616;5.426;2022-09-09T05:54:07;15.55;;;4.03;;
62419;SDS011;48460;51.616;5.426;2022-09-09T05:56:33;12.45;;;3.63;;
62419;SDS011;48460;51.616;5.426;2022-09-09T05:58:59;16.65;;;3.88;;
62419;SDS011;48460;51.616;5.426;2022-09-09T06:01:30;12.45;;;3.50;;
62419;SDS011;48460;51.616;5.426;2022-09-09T06:03:59;18.30;;;3.90;;
62419;SDS011;48460;51.616;5.426;2022-09-09T06:06:26;14.15;;;3.67;;
62419;SDS011;48460;51.616;5.426;2022-09-09T06:08:55;15.50;;;3.78;;
62419;SDS011;48460;51.616;5.426;2022-09-09T06:11:24;17.25;;;3.90;;
62419;SDS011;48460;51.616;5.426;2022-09-09T06:13:51;14.27;;;3.88;;
62419;SDS011;48460;51.616;5.426;2022-09-09T06:16:20;20.02;;;4.10;;
62419;SDS011;48460;51.616;5.426;2022-09-09T06:18:49;14.30;;;3.70;;
62419;SDS011;48460;51.616;5.426;2022-09-09T06:21:19;13.15;;;3.75;;
62419;SDS011;48460;51.616;5.426;2022-09-09T06:23:47;20.23;;;3.78;;
62419;SDS011;48460;51.616;5.426;2022-09-09T06:26:17;16.85;;;3.85;;
62419;SDS011;48460;51.616;5.426;2022-09-09T06:28:48;13.20;;;3.92;;
62419;SDS011;48460;51.616;5.426;2022-09-09T06:31:15;12.82;;;3.10;;
62419;SDS011;48460;51.616;5.426;2022-09-09T06:33:49;15.02;;;3.30;;
62419;SDS011;48460;51.616;5.426;2022-09-09T06:36:22;16.38;;;3.50;;
62419;SDS011;48460;51.616;5.426;2022-09-09T06:38:52;15.05;;;3.17;;
62419;SDS011;48460;51.616;5.426;2022-09-09T06:41:18;14.38;;;3.40;;
62419;SDS011;48460;51.616;5.426;2022-09-09T06:43:47;14.82;;;3.33;;
62419;SDS011;48460;51.616;5.426;2022-09-09T06:46:20;14.93;;;3.63;;
62419;SDS011;48460;51.616;5.426;2022-09-09T06:48:47;11.95;;;3.03;;
62419;SDS011;48460;51.616;5.426;2022-09-09T06:51:14;11.55;;;3.70;;
62419;SDS011;48460;51.616;5.426;2022-09-09T06:53:46;12.43;;;3.17;;
62419;SDS011;48460;51.616;5.426;2022-09-09T06:56:22;15.00;;;3.33;;
62419;SDS011;48460;51.616;5.426;2022-09-09T06:58:48;18.25;;;3.30;;
62419;SDS011;48460;51.616;5.426;2022-09-09T07:01:19;14.30;;;3.03;;
62419;SDS011;48460;51.616;5.426;2022-09-09T07:03:49;12.65;;;3.20;;
62419;SDS011;48460;51.616;5.426;2022-09-09T07:06:17;20.20;;;3.47;;
62419;SDS011;48460;51.616;5.426;2022-09-09T07:08:48;15.65;;;3.30;;
62419;SDS011;48460;51.616;5.426;2022-09-09T07:11:14;16.13;;;3.40;;
62419;SDS011;48460;51.616;5.426;2022-09-09T07:13:39;15.23;;;3.28;;
62419;SDS011;48460;51.616;5.426;2022-09-09T07:16:05;12.50;;;3.30;;
62419;SDS011;48460;51.616;5.426;2022-09-09T07:18:32;14.55;;;3.20;;
62419;SDS011;48460;51.616;5.426;2022-09-09T07:20:58;16.95;;;2.97;;
62419;SDS011;48460;51.616;5.426;2022-09-09T07:23:26;15.25;;;3.20;;
62419;SDS011;48460;51.616;5.426;2022-09-09T07:25:52;16.88;;;3.50;;
62419;SDS011;48460;51.616;5.426;2022-09-09T07:28:21;15.45;;;3.20;;
62419;SDS011;48460;51.616;5.426;2022-09-09T07:30:57;16.30;;;3.17;;
62419;SDS011;48460;51.616;5.426;2022-09-09T07:33:31;11.38;;;2.67;;
62419;SDS011;48460;51.616;5.426;2022-09-09T07:36:10;14.65;;;3.65;;
62419;SDS011;48460;51.616;5.426;2022-09-09T07:38:50;9.27;;;2.97;;
62419;SDS011;48460;51.616;5.426;2022-09-09T07:41:24;14.43;;;3.65;;
62419;SDS011;48460;51.616;5.426;2022-09-09T07:43:55;13.05;;;3.13;;
62419;SDS011;48460;51.616;5.426;2022-09-09T07:49:42;10.13;;;3.13;;
62419;SDS011;48460;51.616;5.426;2022-09-09T07:52:11;11.85;;;3.03;;
62419;SDS011;48460;51.616;5.426;2022-09-09T07:57:19;13.52;;;2.70;;
62419;SDS011;48460;51.616;5.426;2022-09-09T07:59:52;15.27;;;3.22;;
62419;SDS011;48460;51.616;5.426;2022-09-09T08:02:26;15.85;;;3.25;;
62419;SDS011;48460;51.616;5.426;2022-09-09T08:12:37;15.75;;;3.20;;
62419;SDS011;48460;51.616;5.426;2022-09-09T08:17:42;12.20;;;2.90;;
62419;SDS011;48460;51.616;5.426;2022-09-09T08:20:11;17.73;;;3.42;;
62419;SDS011;48460;51.616;5.426;2022-09-09T08:22:41;12.68;;;2.58;;
62419;SDS011;48460;51.616;5.426;2022-09-09T08:25:09;17.58;;;3.15;;
62419;SDS011;48460;51.616;5.426;2022-09-09T08:27:40;9.70;;;3.05;;
62419;SDS011;48460;51.616;5.426;2022-09-09T08:30:05;8.07;;;2.42;;
62419;SDS011;48460;51.616;5.426;2022-09-09T08:46:33;13.52;;;2.90;;
62419;SDS011;48460;51.616;5.426;2022-09-09T08:51:54;15.52;;;3.13;;
62419;SDS011;48460;51.616;5.426;2022-09-09T08:54:26;12.55;;;2.83;;
62419;SDS011;48460;51.616;5.426;2022-09-09T08:57:04;14.15;;;3.00;;
62419;SDS011;48460;51.616;5.426;2022-09-09T08:59:51;13.32;;;2.85;;
62419;SDS011;48460;51.616;5.426;2022-09-09T09:03:00;11.65;;;2.90;;
62419;SDS011;48460;51.616;5.426;2022-09-09T09:08:53;16.90;;;3.30;;
62419;SDS011;48460;51.616;5.426;2022-09-09T09:11:26;12.45;;;2.63;;
62419;SDS011;48460;51.616;5.426;2022-09-09T09:14:03;9.10;;;2.60;;
62419;SDS011;48460;51.616;5.426;2022-09-09T09:16:53;11.20;;;2.80;;
62419;SDS011;48460;51.616;5.426;2022-09-09T09:19:48;12.43;;;2.90;;
62419;SDS011;48460;51.616;5.426;2022-09-09T09:30:17;13.20;;;2.85;;
62419;SDS011;48460;51.616;5.426;2022-09-09T09:33:04;12.43;;;2.92;;
62419;SDS011;48460;51.616;5.426;2022-09-09T09:38:27;10.65;;;2.50;;
62419;SDS011;48460;51.616;5.426;2022-09-09T09:40:59;16.48;;;2.75;;
62419;SDS011;48460;51.616;5.426;2022-09-09T09:43:37;10.55;;;2.90;;
62419;SDS011;48460;51.616;5.426;2022-09-09T09:46:22;15.10;;;3.03;;
62419;SDS011;48460;51.616;5.426;2022-09-09T09:49:00;13.48;;;2.88;;
62419;SDS011;48460;51.616;5.426;2022-09-09T09:51:28;9.23;;;2.53;;
62419;SDS011;48460;51.616;5.426;2022-09-09T09:56:46;8.95;;;2.80;;
62419;SDS011;48460;51.616;5.426;2022-09-09T10:04:39;14.90;;;3.03;;
62419;SDS011;48460;51.616;5.426;2022-09-09T10:07:22;15.45;;;3.13;;
62419;SDS011;48460;51.616;5.426;2022-09-09T10:09:49;14.00;;;3.05;;
62419;SDS011;48460;51.616;5.426;2022-09-09T10:15:24;11.57;;;3.25;;
62419;SDS011;48460;51.616;5.426;2022-09-09T10:18:08;15.98;;;2.88;;
62419;SDS011;48460;51.616;5.426;2022-09-09T10:20:56;14.80;;;3.40;;
62419;SDS011;48460;51.616;5.426;2022-09-09T10:26:46;14.15;;;3.45;;
62419;SDS011;48460;51.616;5.426;2022-09-09T10:40:20;12.00;;;3.20;;
62419;SDS011;48460;51.616;5.426;2022-09-09T10:46:23;14.35;;;3.35;;
62419;SDS011;48460;51.616;5.426;2022-09-09T10:57:54;11.30;;;3.10;;
62419;SDS011;48460;51.616;5.426;2022-09-09T11:00:44;16.25;;;3.40;;
62419;SDS011;48460;51.616;5.426;2022-09-09T11:05:57;14.23;;;3.50;;
62419;SDS011;48460;51.616;5.426;2022-09-09T11:19:41;11.25;;;2.83;;
62419;SDS011;48460;51.616;5.426;2022-09-09T11:27:27;10.55;;;3.08;;
62419;SDS011;48460;51.616;5.426;2022-09-09T11:30:13;9.07;;;3.10;;
62419;SDS011;48460;51.616;5.426;2022-09-09T11:33:08;13.52;;;3.38;;
62419;SDS011;48460;51.616;5.426;2022-09-09T11:36:24;9.27;;;3.35;;
62419;SDS011;48460;51.616;5.426;2022-09-09T11:38:52;11.07;;;3.00;;
62419;SDS011;48460;51.616;5.426;2022-09-09T11:48:00;12.50;;;3.38;;
62419;SDS011;48460;51.616;5.426;2022-09-09T11:50:29;9.23;;;3.30;;
62419;SDS011;48460;51.616;5.426;2022-09-09T11:53:16;14.13;;;3.05;;
62419;SDS011;48460;51.616;5.426;2022-09-09T11:55:59;13.48;;;3.45;;
62419;SDS011;48460;51.616;5.426;2022-09-09T11:58:33;12.45;;;3.00;;
62419;SDS011;48460;51.616;5.426;2022-09-09T12:01:12;10.48;;;3.40;;
62419;SDS011;48460;51.616;5.426;2022-09-09T12:06:43;11.18;;;3.35;;
62419;SDS011;48460;51.616;5.426;2022-09-09T12:11:49;9.20;;;2.70;;
62419;SDS011;48460;51.616;5.426;2022-09-09T12:14:55;10.95;;;3.22;;
62419;SDS011;48460;51.616;5.426;2022-09-09T12:17:57;8.32;;;3.25;;
62419;SDS011;48460;51.616;5.426;2022-09-09T12:26:16;13.20;;;3.28;;
62419;SDS011;48460;51.616;5.426;2022-09-09T12:29:15;12.55;;;3.50;;
62419;SDS011;48460;51.616;5.426;2022-09-09T12:31:51;7.90;;;2.78;;
62419;SDS011;48460;51.616;5.426;2022-09-09T12:34:37;11.38;;;3.20;;
62419;SDS011;48460;51.616;5.426;2022-09-09T12:37:17;9.40;;;3.25;;
62419;SDS011;48460;51.616;5.426;2022-09-09T12:40:00;8.27;;;2.90;;
62419;SDS011;48460;51.616;5.426;2022-09-09T12:42:29;9.68;;;2.83;;
62419;SDS011;48460;51.616;5.426;2022-09-09T12:45:14;8.02;;;2.85;;
62419;SDS011;48460;51.616;5.426;2022-09-09T12:47:58;8.50;;;2.70;;
62419;SDS011;48460;51.616;5.426;2022-09-09T12:50:36;8.93;;;2.60;;
62419;SDS011;48460;51.616;5.426;2022-09-09T12:53:10;10.50;;;2.85;;
62419;SDS011;48460;51.616;5.426;2022-09-09T12:58:36;8.45;;;2.75;;
62419;SDS011;48460;51.616;5.426;2022-09-09T13:04:26;12.05;;;2.80;;
62419;SDS011;48460;51.616;5.426;2022-09-09T13:07:04;10.27;;;3.00;;
62419;SDS011;48460;51.616;5.426;2022-09-09T13:12:34;10.80;;;3.00;;
62419;SDS011;48460;51.616;5.426;2022-09-09T13:15:05;10.52;;;2.80;;
62419;SDS011;48460;51.616;5.426;2022-09-09T13:17:57;7.13;;;2.40;;
62419;SDS011;48460;51.616;5.426;2022-09-09T13:23:04;8.85;;;2.53;;
62419;SDS011;48460;51.616;5.426;2022-09-09T13:25:30;6.07;;;2.25;;
62419;SDS011;48460;51.616;5.426;2022-09-09T13:30:44;8.23;;;2.80;;
62419;SDS011;48460;51.616;5.426;2022-09-09T13:33:38;10.27;;;2.78;;
62419;SDS011;48460;51.616;5.426;2022-09-09T13:39:02;10.95;;;2.90;;
62419;SDS011;48460;51.616;5.426;2022-09-09T13:41:36;8.82;;;3.13;;
62419;SDS011;48460;51.616;5.426;2022-09-09T13:44:23;5.67;;;2.50;;
62419;SDS011;48460;51.616;5.426;2022-09-09T13:47:05;10.40;;;3.05;;
62419;SDS011;48460;51.616;5.426;2022-09-09T13:49:44;9.45;;;2.88;;
62419;SDS011;48460;51.616;5.426;2022-09-09T13:54:50;10.13;;;2.75;;
62419;SDS011;48460;51.616;5.426;2022-09-09T13:57:20;9.88;;;2.83;;
62419;SDS011;48460;51.616;5.426;2022-09-09T13:59:50;9.00;;;2.95;;
62419;SDS011;48460;51.616;5.426;2022-09-09T14:07:43;9.50;;;2.72;;
62419;SDS011;48460;51.616;5.426;2022-09-09T14:10:13;9.13;;;2.78;;
62419;SDS011;48460;51.616;5.426;2022-09-09T14:12:41;8.98;;;2.80;;
62419;SDS011;48460;51.616;5.426;2022-09-09T14:15:09;9.70;;;2.63;;
62419;SDS011;48460;51.616;5.426;2022-09-09T14:17:41;9.57;;;2.80;;
62419;SDS011;48460;51.616;5.426;2022-09-09T14:20:17;10.02;;;2.78;;
62419;SDS011;48460;51.616;5.426;2022-09-09T14:25:26;9.68;;;2.70;;
62419;SDS011;48460;51.616;5.426;2022-09-09T14:27:55;9.02;;;2.60;;
62419;SDS011;48460;51.616;5.426;2022-09-09T14:30:37;6.97;;;2.50;;
62419;SDS011;48460;51.616;5.426;2022-09-09T14:33:13;7.10;;;2.20;;
62419;SDS011;48460;51.616;5.426;2022-09-09T14:35:42;9.63;;;2.70;;
62419;SDS011;48460;51.616;5.426;2022-09-09T14:38:17;8.60;;;2.70;;
62419;SDS011;48460;51.616;5.426;2022-09-09T14:40:45;10.60;;;2.60;;
62419;SDS011;48460;51.616;5.426;2022-09-09T14:43:15;8.83;;;2.23;;
62419;SDS011;48460;51.616;5.426;2022-09-09T14:45:46;10.18;;;2.92;;
62419;SDS011;48460;51.616;5.426;2022-09-09T14:48:19;5.35;;;2.22;;
62419;SDS011;48460;51.616;5.426;2022-09-09T14:50:50;8.90;;;2.40;;
62419;SDS011;48460;51.616;5.426;2022-09-09T14:53:16;5.30;;;2.05;;
62419;SDS011;48460;51.616;5.426;2022-09-09T14:55:44;6.43;;;2.20;;
62419;SDS011;48460;51.616;5.426;2022-09-09T14:58:13;10.00;;;2.30;;
62419;SDS011;48460;51.616;5.426;2022-09-09T15:00:41;4.97;;;2.30;;
62419;SDS011;48460;51.616;5.426;2022-09-09T15:03:09;7.55;;;2.28;;
62419;SDS011;48460;51.616;5.426;2022-09-09T15:05:40;9.23;;;2.50;;
62419;SDS011;48460;51.616;5.426;2022-09-09T15:08:08;4.93;;;2.08;;
62419;SDS011;48460;51.616;5.426;2022-09-09T15:10:49;4.68;;;2.35;;
62419;SDS011;48460;51.616;5.426;2022-09-09T15:15:51;8.13;;;2.50;;
62419;SDS011;48460;51.616;5.426;2022-09-09T15:18:27;5.78;;;2.40;;
62419;SDS011;48460;51.616;5.426;2022-09-09T15:20:56;8.23;;;2.30;;
62419;SDS011;48460;51.616;5.426;2022-09-09T15:23:23;7.43;;;1.90;;
62419;SDS011;48460;51.616;5.426;2022-09-09T15:25:52;4.38;;;2.10;;
62419;SDS011;48460;51.616;5.426;2022-09-09T15:28:18;4.37;;;2.10;;
62419;SDS011;48460;51.616;5.426;2022-09-09T15:30:47;4.45;;;2.08;;
62419;SDS011;48460;51.616;5.426;2022-09-09T15:33:13;8.10;;;2.33;;
62419;SDS011;48460;51.616;5.426;2022-09-09T15:35:38;7.38;;;2.22;;
62419;SDS011;48460;51.616;5.426;2022-09-09T15:38:04;5.55;;;2.20;;
62419;SDS011;48460;51.616;5.426;2022-09-09T15:40:32;5.55;;;2.28;;
62419;SDS011;48460;51.616;5.426;2022-09-09T15:42:58;8.07;;;2.40;;
62419;SDS011;48460;51.616;5.426;2022-09-09T15:45:24;6.63;;;2.20;;
62419;SDS011;48460;51.616;5.426;2022-09-09T15:47:49;4.07;;;2.00;;
62419;SDS011;48460;51.616;5.426;2022-09-09T15:50:15;5.72;;;2.20;;
62419;SDS011;48460;51.616;5.426;2022-09-09T15:52:40;5.07;;;2.45;;
62419;SDS011;48460;51.616;5.426;2022-09-09T15:55:06;5.32;;;2.10;;
62419;SDS011;48460;51.616;5.426;2022-09-09T15:57:33;5.10;;;2.20;;
62419;SDS011;48460;51.616;5.426;2022-09-09T15:59:59;5.63;;;2.08;;
62419;SDS011;48460;51.616;5.426;2022-09-09T16:02:25;4.72;;;2.25;;
62419;SDS011;48460;51.616;5.426;2022-09-09T16:04:50;7.78;;;2.42;;
62419;SDS011;48460;51.616;5.426;2022-09-09T16:07:16;3.88;;;2.40;;
62419;SDS011;48460;51.616;5.426;2022-09-09T16:09:42;5.10;;;2.30;;
62419;SDS011;48460;51.616;5.426;2022-09-09T16:12:08;4.32;;;2.38;;
62419;SDS011;48460;51.616;5.426;2022-09-09T16:14:38;4.65;;;2.47;;
62419;SDS011;48460;51.616;5.426;2022-09-09T16:17:04;5.70;;;2.70;;
62419;SDS011;48460;51.616;5.426;2022-09-09T16:19:31;4.55;;;2.40;;
62419;SDS011;48460;51.616;5.426;2022-09-09T16:21:57;5.88;;;2.67;;
62419;SDS011;48460;51.616;5.426;2022-09-09T16:24:23;5.35;;;2.50;;
62419;SDS011;48460;51.616;5.426;2022-09-09T16:26:52;5.32;;;2.80;;
62419;SDS011;48460;51.616;5.426;2022-09-09T16:29:19;6.65;;;2.95;;
62419;SDS011;48460;51.616;5.426;2022-09-09T16:31:46;6.10;;;2.90;;
62419;SDS011;48460;51.616;5.426;2022-09-09T16:34:15;8.05;;;3.38;;
62419;SDS011;48460;51.616;5.426;2022-09-09T16:36:42;6.57;;;3.35;;
62419;SDS011;48460;51.616;5.426;2022-09-09T16:39:13;5.90;;;3.40;;
62419;SDS011;48460;51.616;5.426;2022-09-09T16:41:43;10.48;;;3.60;;
62419;SDS011;48460;51.616;5.426;2022-09-09T16:44:11;8.30;;;3.67;;
62419;SDS011;48460;51.616;5.426;2022-09-09T16:46:38;8.30;;;3.42;;
62419;SDS011;48460;51.616;5.426;2022-09-09T16:49:09;7.15;;;3.60;;
62419;SDS011;48460;51.616;5.426;2022-09-09T16:51:39;10.82;;;3.65;;
62419;SDS011;48460;51.616;5.426;2022-09-09T16:54:07;6.18;;;4.03;;
62419;SDS011;48460;51.616;5.426;2022-09-09T16:56:35;6.57;;;3.95;;
62419;SDS011;48460;51.616;5.426;2022-09-09T16:59:04;6.28;;;4.13;;
62419;SDS011;48460;51.616;5.426;2022-09-09T17:01:32;7.72;;;4.32;;
62419;SDS011;48460;51.616;5.426;2022-09-09T17:04:03;8.77;;;3.92;;
62419;SDS011;48460;51.616;5.426;2022-09-09T17:06:30;8.35;;;4.28;;
62419;SDS011;48460;51.616;5.426;2022-09-09T17:08:58;7.38;;;3.90;;
62419;SDS011;48460;51.616;5.426;2022-09-09T17:11:25;8.05;;;4.05;;
62419;SDS011;48460;51.616;5.426;2022-09-09T17:13:51;6.00;;;3.78;;
62419;SDS011;48460;51.616;5.426;2022-09-09T17:16:18;9.00;;;4.40;;
62419;SDS011;48460;51.616;5.426;2022-09-09T17:18:46;11.57;;;4.93;;
62419;SDS011;48460;51.616;5.426;2022-09-09T17:21:14;7.72;;;4.15;;
62419;SDS011;48460;51.616;5.426;2022-09-09T17:23:41;8.18;;;3.75;;
62419;SDS011;48460;51.616;5.426;2022-09-09T17:26:09;14.57;;;4.50;;
62419;SDS011;48460;51.616;5.426;2022-09-09T17:28:36;8.90;;;4.55;;
62419;SDS011;48460;51.616;5.426;2022-09-09T17:31:03;7.68;;;4.13;;
62419;SDS011;48460;51.616;5.426;2022-09-09T17:33:32;5.50;;;3.53;;
62419;SDS011;48460;51.616;5.426;2022-09-09T17:35:59;6.97;;;3.60;;
62419;SDS011;48460;51.616;5.426;2022-09-09T17:38:31;6.88;;;3.58;;
62419;SDS011;48460;51.616;5.426;2022-09-09T17:41:08;5.38;;;3.15;;
62419;SDS011;48460;51.616;5.426;2022-09-09T17:43:35;7.38;;;3.00;;
62419;SDS011;48460;51.616;5.426;2022-09-09T17:46:09;12.52;;;4.10;;
62419;SDS011;48460;51.616;5.426;2022-09-09T17:48:37;6.35;;;3.00;;
62419;SDS011;48460;51.616;5.426;2022-09-09T17:51:04;6.07;;;3.13;;
62419;SDS011;48460;51.616;5.426;2022-09-09T17:53:35;6.38;;;2.80;;
62419;SDS011;48460;51.616;5.426;2022-09-09T17:56:05;7.15;;;2.80;;
62419;SDS011;48460;51.616;5.426;2022-09-09T17:58:33;4.97;;;2.57;;
62419;SDS011;48460;51.616;5.426;2022-09-09T18:01:13;6.40;;;2.40;;
62419;SDS011;48460;51.616;5.426;2022-09-09T18:03:41;4.88;;;2.50;;
62419;SDS011;48460;51.616;5.426;2022-09-09T18:06:09;5.63;;;2.60;;
62419;SDS011;48460;51.616;5.426;2022-09-09T18:08:40;5.43;;;2.67;;
62419;SDS011;48460;51.616;5.426;2022-09-09T18:11:07;5.65;;;2.80;;
62419;SDS011;48460;51.616;5.426;2022-09-09T18:13:33;5.20;;;3.00;;
62419;SDS011;48460;51.616;5.426;2022-09-09T18:15:59;7.82;;;3.00;;
62419;SDS011;48460;51.616;5.426;2022-09-09T18:18:26;6.43;;;2.80;;
62419;SDS011;48460;51.616;5.426;2022-09-09T18:21:06;7.47;;;2.88;;
62419;SDS011;48460;51.616;5.426;2022-09-09T18:23:35;4.82;;;2.88;;
62419;SDS011;48460;51.616;5.426;2022-09-09T18:26:08;5.45;;;3.30;;
62419;SDS011;48460;51.616;5.426;2022-09-09T18:28:36;7.38;;;3.53;;
62419;SDS011;48460;51.616;5.426;2022-09-09T18:31:04;8.23;;;3.30;;
62419;SDS011;48460;51.616;5.426;2022-09-09T18:33:32;7.47;;;3.38;;
62419;SDS011;48460;51.616;5.426;2022-09-09T18:36:04;8.20;;;3.63;;